Time;durP1;ratioP1;P1;durP2;ratioP2;P2;SDS_P1;SDS_P2;PMS_P1;PMS_P2;Temp;Humidity;BMP_temperature;BMP_pressure;BME280_temperature;BME280_humidity;BME280_pressure;Samples;Min_cycle;Max_cycle;Signal;HPM_P1;HPM_P2
2023/12/04 00:01:45;;;;;;;23.90;9.38;;;;;;;;;;5062895;28;20035;-39
2023/12/04 00:04:10;;;;;;;26.52;10.70;;;;;;;;;;5059175;28;20020;-40
2023/12/04 00:06:35;;;;;;;26.75;9.88;;;;;;;;;;5061382;28;20028;-40
2023/12/04 00:09:01;;;;;;;23.17;8.88;;;;;;;;;;5064385;28;20386;-39
2023/12/04 00:11:26;;;;;;;26.50;10.85;;;;;;;;;;5063832;28;20031;-39
2023/12/04 00:13:52;;;;;;;23.67;9.90;;;;;;;;;;5048002;28;20040;-39
2023/12/04 00:16:17;;;;;;;23.25;10.32;;;;;;;;;;5067401;28;20032;-40
2023/12/04 00:18:43;;;;;;;26.33;11.38;;;;;;;;;;5044435;28;20029;-40
2023/12/04 00:21:08;;;;;;;24.15;11.32;;;;;;;;;;5064232;28;20081;-40
2023/12/04 00:23:33;;;;;;;28.00;10.70;;;;;;;;;;5062385;28;20086;-40
2023/12/04 00:25:59;;;;;;;20.77;9.93;;;;;;;;;;5064541;28;20029;-40
2023/12/04 00:28:24;;;;;;;21.58;9.93;;;;;;;;;;5066494;28;20028;-40
2023/12/04 00:30:49;;;;;;;19.85;9.15;;;;;;;;;;5065995;28;20490;-40
2023/12/04 00:33:15;;;;;;;22.98;9.25;;;;;;;;;;5067208;28;20036;-40
2023/12/04 00:35:40;;;;;;;21.73;10.52;;;;;;;;;;5061803;28;20027;-40
2023/12/04 00:38:05;;;;;;;27.38;11.65;;;;;;;;;;5063501;28;20016;-39
2023/12/04 00:40:30;;;;;;;25.13;10.13;;;;;;;;;;5064735;28;20027;-40
2023/12/04 00:42:56;;;;;;;23.73;10.98;;;;;;;;;;5061067;28;20021;-40
2023/12/04 00:45:21;;;;;;;21.08;9.13;;;;;;;;;;5067581;28;20552;-39
2023/12/04 00:47:46;;;;;;;27.42;10.95;;;;;;;;;;5068056;28;20071;-39
2023/12/04 00:50:12;;;;;;;21.15;9.13;;;;;;;;;;5065851;28;20028;-39
2023/12/04 00:52:37;;;;;;;22.08;9.38;;;;;;;;;;5066366;28;20036;-39
2023/12/04 00:55:02;;;;;;;20.48;9.32;;;;;;;;;;5066767;28;20040;-40
2023/12/04 00:57:28;;;;;;;28.63;10.57;;;;;;;;;;5060790;28;20024;-40
2023/12/04 00:59:53;;;;;;;23.40;10.07;;;;;;;;;;5063804;28;20466;-40
2023/12/04 01:02:18;;;;;;;24.15;10.38;;;;;;;;;;5065588;28;20059;-40
2023/12/04 01:04:43;;;;;;;28.33;12.07;;;;;;;;;;5066152;28;20027;-40
2023/12/04 01:07:09;;;;;;;23.13;10.25;;;;;;;;;;5062644;28;20028;-39
2023/12/04 01:09:35;;;;;;;18.55;9.93;;;;;;;;;;5066217;28;20028;-40
2023/12/04 01:12:00;;;;;;;23.23;9.30;;;;;;;;;;5064556;28;20050;-40
2023/12/04 01:14:25;;;;;;;19.92;8.95;;;;;;;;;;5057314;28;20240;-40
2023/12/04 01:16:51;;;;;;;24.50;10.63;;;;;;;;;;5063911;28;20048;-40
2023/12/04 01:19:16;;;;;;;27.38;10.73;;;;;;;;;;5065793;28;20017;-39
2023/12/04 01:21:41;;;;;;;25.60;10.32;;;;;;;;;;5064300;28;20048;-40
2023/12/04 01:24:07;;;;;;;27.48;9.88;;;;;;;;;;5067300;28;20054;-40
2023/12/04 01:26:32;;;;;;;21.73;8.48;;;;;;;;;;5066644;28;20132;-40
2023/12/04 01:28:57;;;;;;;23.92;9.80;;;;;;;;;;5067482;28;20078;-40
2023/12/04 01:31:24;;;;;;;22.58;8.73;;;;;;;;;;5059317;28;20052;-40
2023/12/04 01:33:49;;;;;;;23.55;9.45;;;;;;;;;;5062656;28;20028;-39
2023/12/04 01:36:15;;;;;;;24.77;10.02;;;;;;;;;;5065154;28;20032;-40
2023/12/04 01:38:40;;;;;;;18.58;9.52;;;;;;;;;;5064502;28;20043;-40
2023/12/04 01:41:05;;;;;;;26.17;11.88;;;;;;;;;;5063368;28;20024;-40
2023/12/04 01:43:31;;;;;;;22.77;9.45;;;;;;;;;;5062643;28;20437;-40
2023/12/04 01:45:57;;;;;;;22.77;9.15;;;;;;;;;;5065981;28;20025;-40
2023/12/04 01:48:22;;;;;;;27.35;9.75;;;;;;;;;;5063856;28;20020;-40
2023/12/04 01:50:48;;;;;;;27.65;10.63;;;;;;;;;;5065353;28;20403;-40
2023/12/04 01:53:13;;;;;;;21.23;8.55;;;;;;;;;;5053888;28;20028;-40
2023/12/04 01:55:39;;;;;;;23.98;10.20;;;;;;;;;;5059556;28;20029;-40
2023/12/04 01:58:05;;;;;;;18.45;8.60;;;;;;;;;;5064023;28;20074;-40
2023/12/04 02:00:31;;;;;;;18.45;9.18;;;;;;;;;;5063845;28;20087;-40
2023/12/04 02:02:57;;;;;;;22.63;9.95;;;;;;;;;;5062532;28;20048;-40
2023/12/04 02:05:23;;;;;;;17.63;7.72;;;;;;;;;;5063999;28;20012;-39
2023/12/04 02:07:48;;;;;;;21.35;10.27;;;;;;;;;;5063996;28;20024;-40
2023/12/04 02:10:14;;;;;;;26.23;10.30;;;;;;;;;;5062054;28;20052;-39
2023/12/04 02:12:39;;;;;;;20.45;8.98;;;;;;;;;;5062852;28;20035;-40
2023/12/04 02:15:05;;;;;;;25.60;10.60;;;;;;;;;;5065036;28;20067;-40
2023/12/04 02:17:32;;;;;;;23.90;11.55;;;;;;;;;;5063554;28;20483;-40
2023/12/04 02:19:57;;;;;;;16.17;6.15;;;;;;;;;;5062963;28;20507;-40
2023/12/04 02:22:22;;;;;;;22.77;9.68;;;;;;;;;;5061671;28;20030;-39
2023/12/04 02:24:48;;;;;;;25.30;8.85;;;;;;;;;;5063213;28;20083;-40
2023/12/04 02:27:19;;;;;;;28.08;9.68;;;;;;;;;;5063557;28;20454;-40
2023/12/04 02:29:47;;;;;;;23.67;10.80;;;;;;;;;;5058048;28;20028;-39
2023/12/04 02:32:15;;;;;;;25.30;9.25;;;;;;;;;;5060514;28;20055;-39
2023/12/04 02:34:42;;;;;;;22.40;8.82;;;;;;;;;;5062925;28;20029;-40
2023/12/04 02:37:08;;;;;;;22.95;10.00;;;;;;;;;;5065222;28;20031;-40
2023/12/04 02:39:33;;;;;;;27.77;10.52;;;;;;;;;;5062952;28;20028;-40
2023/12/04 02:41:59;;;;;;;26.33;9.48;;;;;;;;;;5062939;28;20444;-40
2023/12/04 02:44:24;;;;;;;23.02;8.77;;;;;;;;;;5064923;28;20044;-39
2023/12/04 02:46:50;;;;;;;14.75;5.90;;;;;;;;;;5055534;28;20116;-39
2023/12/04 02:49:15;;;;;;;22.90;8.40;;;;;;;;;;5062937;28;20028;-39
2023/12/04 02:51:41;;;;;;;22.40;8.70;;;;;;;;;;5044431;28;20021;-39
2023/12/04 02:54:06;;;;;;;49.03;19.40;;;;;;;;;;5065812;28;20552;-39
2023/12/04 02:56:31;;;;;;;33.63;11.77;;;;;;;;;;5062336;28;20107;-39
2023/12/04 02:58:57;;;;;;;22.13;9.80;;;;;;;;;;5064560;28;20070;-39
2023/12/04 03:01:22;;;;;;;23.08;9.35;;;;;;;;;;5059845;28;20017;-39
2023/12/04 03:03:47;;;;;;;22.25;9.23;;;;;;;;;;5040722;28;20733;-39
2023/12/04 03:06:15;;;;;;;23.92;9.30;;;;;;;;;;5062496;28;20100;-39
2023/12/04 03:08:41;;;;;;;22.52;9.85;;;;;;;;;;5061292;28;20033;-39
2023/12/04 03:11:06;;;;;;;21.85;8.82;;;;;;;;;;5063968;28;20073;-39
2023/12/04 03:13:32;;;;;;;22.83;8.98;;;;;;;;;;5065251;28;20123;-39
2023/12/04 03:15:57;;;;;;;19.90;8.05;;;;;;;;;;5065934;28;20094;-39
2023/12/04 03:18:25;;;;;;;24.25;10.60;;;;;;;;;;5065319;28;20444;-40
2023/12/04 03:20:50;;;;;;;20.98;9.15;;;;;;;;;;5060913;28;20035;-37
2023/12/04 03:23:15;;;;;;;20.20;9.02;;;;;;;;;;5061189;28;20036;-40
2023/12/04 03:25:41;;;;;;;21.35;8.13;;;;;;;;;;5063881;28;20110;-40
2023/12/04 03:28:06;;;;;;;23.48;8.25;;;;;;;;;;5065689;28;20039;-40
2023/12/04 03:30:31;;;;;;;23.30;8.63;;;;;;;;;;5064756;28;20075;-40
2023/12/04 03:32:56;;;;;;;23.90;8.95;;;;;;;;;;5062848;28;20025;-38
2023/12/04 03:35:22;;;;;;;23.00;8.98;;;;;;;;;;5065207;28;20032;-37
2023/12/04 03:37:49;;;;;;;21.13;8.52;;;;;;;;;;5057247;28;20037;-37
2023/12/04 03:40:14;;;;;;;22.75;9.88;;;;;;;;;;5061326;28;20017;-37
2023/12/04 03:42:40;;;;;;;26.40;9.90;;;;;;;;;;5063738;28;20023;-37
2023/12/04 03:45:06;;;;;;;24.55;9.57;;;;;;;;;;5065259;28;20021;-37
2023/12/04 03:47:31;;;;;;;23.70;10.52;;;;;;;;;;5062539;28;20021;-37
2023/12/04 03:49:57;;;;;;;20.25;8.80;;;;;;;;;;5061190;28;20024;-37
2023/12/04 03:52:22;;;;;;;21.38;8.88;;;;;;;;;;5067972;28;20077;-37
2023/12/04 03:54:47;;;;;;;19.00;8.98;;;;;;;;;;5068779;28;20049;-37
2023/12/04 03:57:12;;;;;;;16.10;7.72;;;;;;;;;;5042053;28;20032;-37
2023/12/04 03:59:38;;;;;;;22.95;9.07;;;;;;;;;;5064048;28;20115;-38
2023/12/04 04:02:03;;;;;;;23.73;10.13;;;;;;;;;;5068067;28;20048;-38
2023/12/04 04:04:28;;;;;;;26.42;10.13;;;;;;;;;;5067993;28;20382;-39
2023/12/04 04:06:54;;;;;;;29.90;12.60;;;;;;;;;;5064553;28;20028;-38
2023/12/04 04:09:20;;;;;;;22.15;9.90;;;;;;;;;;5068114;28;20476;-38
2023/12/04 04:11:45;;;;;;;28.45;10.77;;;;;;;;;;5067190;28;20028;-38
2023/12/04 04:14:10;;;;;;;27.98;10.70;;;;;;;;;;5058538;28;20024;-38
2023/12/04 04:16:36;;;;;;;30.90;10.23;;;;;;;;;;5064910;28;20411;-38
2023/12/04 04:19:01;;;;;;;27.88;10.70;;;;;;;;;;5063821;28;20024;-38
2023/12/04 04:21:26;;;;;;;23.10;9.50;;;;;;;;;;5066706;28;20020;-39
2023/12/04 04:23:53;;;;;;;25.90;10.27;;;;;;;;;;5068473;28;20025;-38
2023/12/04 04:26:18;;;;;;;26.70;10.77;;;;;;;;;;5066372;28;20387;-38
2023/12/04 04:28:44;;;;;;;31.13;12.57;;;;;;;;;;5068268;28;20036;-39
2023/12/04 04:31:09;;;;;;;33.45;11.82;;;;;;;;;;5063893;28;20039;-39
2023/12/04 04:33:34;;;;;;;27.02;10.82;;;;;;;;;;5067317;28;20021;-38
2023/12/04 04:36:00;;;;;;;25.20;10.75;;;;;;;;;;5061309;28;20474;-38
2023/12/04 04:38:25;;;;;;;41.13;11.50;;;;;;;;;;5065517;28;20024;-38
2023/12/04 04:40:52;;;;;;;32.25;12.65;;;;;;;;;;5064329;28;20017;-39
2023/12/04 04:43:17;;;;;;;26.10;10.38;;;;;;;;;;5067516;28;20021;-38
2023/12/04 04:45:43;;;;;;;29.58;10.65;;;;;;;;;;5064396;28;20039;-39
2023/12/04 04:48:10;;;;;;;29.50;11.50;;;;;;;;;;5067304;28;20043;-38
2023/12/04 04:50:35;;;;;;;27.83;10.15;;;;;;;;;;5066282;28;20020;-38
2023/12/04 04:53:01;;;;;;;27.60;10.63;;;;;;;;;;5059550;28;20074;-39
2023/12/04 04:55:26;;;;;;;20.67;10.15;;;;;;;;;;5062012;28;20029;-38
2023/12/04 04:57:51;;;;;;;14.05;5.97;;;;;;;;;;5063668;28;20127;-38
2023/12/04 05:00:17;;;;;;;24.33;9.75;;;;;;;;;;5064823;28;20021;-38
2023/12/04 05:02:42;;;;;;;25.55;9.40;;;;;;;;;;5063581;28;20456;-39
2023/12/04 05:05:08;;;;;;;21.50;9.43;;;;;;;;;;5064984;28;20058;-39
2023/12/04 05:07:33;;;;;;;16.75;8.63;;;;;;;;;;5064919;28;20036;-38
2023/12/04 05:09:58;;;;;;;23.52;8.95;;;;;;;;;;5068576;28;20020;-38
2023/12/04 05:12:24;;;;;;;16.48;8.65;;;;;;;;;;5057470;28;20024;-38
2023/12/04 05:14:49;;;;;;;24.80;10.30;;;;;;;;;;5063786;28;20123;-38
2023/12/04 05:17:14;;;;;;;24.73;8.95;;;;;;;;;;5064465;28;20062;-38
2023/12/04 05:19:40;;;;;;;26.50;9.38;;;;;;;;;;5065172;28;20039;-38
2023/12/04 05:22:05;;;;;;;22.70;9.38;;;;;;;;;;5066565;28;20175;-38
2023/12/04 05:24:31;;;;;;;22.15;9.88;;;;;;;;;;5064566;28;20070;-38
2023/12/04 05:26:56;;;;;;;21.80;10.35;;;;;;;;;;5065136;28;20107;-39
2023/12/04 05:29:21;;;;;;;18.40;8.82;;;;;;;;;;5050638;28;20040;-39
2023/12/04 05:31:47;;;;;;;21.30;9.20;;;;;;;;;;5060706;28;20408;-39
2023/12/04 05:34:12;;;;;;;22.05;7.60;;;;;;;;;;5065640;28;20495;-39
2023/12/04 05:36:37;;;;;;;19.40;9.23;;;;;;;;;;5067164;28;20094;-39
2023/12/04 05:39:04;;;;;;;27.63;11.02;;;;;;;;;;5065619;28;20039;-39
2023/12/04 05:41:29;;;;;;;26.13;10.93;;;;;;;;;;5065941;28;20025;-39
2023/12/04 05:43:55;;;;;;;24.80;9.57;;;;;;;;;;5066375;28;20036;-42
2023/12/04 05:46:20;;;;;;;27.52;10.38;;;;;;;;;;5067053;28;20019;-39
2023/12/04 05:48:45;;;;;;;20.95;8.57;;;;;;;;;;5057914;28;20089;-39
2023/12/04 05:51:11;;;;;;;29.55;9.13;;;;;;;;;;5065062;28;20020;-39
2023/12/04 05:53:36;;;;;;;21.65;9.90;;;;;;;;;;5062417;28;20149;-38
2023/12/04 05:56:02;;;;;;;25.88;10.63;;;;;;;;;;5065693;28;20021;-39
2023/12/04 05:58:27;;;;;;;24.27;10.30;;;;;;;;;;5067467;28;20016;-39
2023/12/04 06:00:52;;;;;;;29.23;12.05;;;;;;;;;;5064972;28;20029;-38
2023/12/04 06:03:18;;;;;;;26.50;11.48;;;;;;;;;;5064718;28;20036;-40
2023/12/04 06:05:43;;;;;;;28.70;11.88;;;;;;;;;;5061158;28;20017;-39
2023/12/04 06:08:08;;;;;;;25.65;12.02;;;;;;;;;;5061395;28;20107;-38
2023/12/04 06:10:35;;;;;;;27.20;11.65;;;;;;;;;;5064384;28;20024;-38
2023/12/04 06:13:00;;;;;;;32.55;11.50;;;;;;;;;;5066763;28;21285;-38
2023/12/04 06:15:25;;;;;;;32.03;12.15;;;;;;;;;;5064170;28;20111;-38
2023/12/04 06:17:51;;;;;;;25.15;10.23;;;;;;;;;;5068270;28;20499;-38
2023/12/04 06:20:16;;;;;;;28.63;10.75;;;;;;;;;;5065700;28;20016;-39
2023/12/04 06:22:41;;;;;;;30.65;10.80;;;;;;;;;;5065908;28;20070;-38
2023/12/04 06:25:07;;;;;;;36.92;11.77;;;;;;;;;;5059865;28;20028;-39
2023/12/04 06:27:33;;;;;;;27.27;11.45;;;;;;;;;;5066499;28;20082;-40
2023/12/04 06:29:59;;;;;;;27.23;9.93;;;;;;;;;;5065024;28;20051;-40
2023/12/04 06:32:24;;;;;;;28.25;13.38;;;;;;;;;;5065314;28;20363;-40
2023/12/04 06:34:49;;;;;;;38.15;12.85;;;;;;;;;;5064447;28;20024;-39
2023/12/04 06:37:15;;;;;;;31.80;12.52;;;;;;;;;;5061245;28;20038;-39
2023/12/04 06:39:40;;;;;;;29.77;13.88;;;;;;;;;;5057125;28;25149;-39
2023/12/04 06:42:10;;;;;;;33.33;12.63;;;;;;;;;;5063059;28;20024;-39
2023/12/04 06:44:35;;;;;;;34.78;12.95;;;;;;;;;;5063034;28;20020;-39
2023/12/04 06:47:01;;;;;;;30.17;11.65;;;;;;;;;;5066675;28;20077;-38
2023/12/04 06:49:31;;;;;;;34.15;15.13;;;;;;;;;;5058618;28;20460;-40
2023/12/04 06:51:57;;;;;;;44.17;17.50;;;;;;;;;;5065162;28;20479;-39
2023/12/04 06:54:22;;;;;;;35.30;13.95;;;;;;;;;;5063613;28;20032;-39
2023/12/04 06:56:47;;;;;;;37.03;12.98;;;;;;;;;;5061462;28;20039;-40
2023/12/04 06:59:12;;;;;;;38.60;15.32;;;;;;;;;;5064397;28;20021;-40
2023/12/04 07:01:38;;;;;;;28.02;12.02;;;;;;;;;;5061383;28;20020;-39
2023/12/04 07:04:09;;;;;;;28.42;11.70;;;;;;;;;;5065256;28;20031;-40
2023/12/04 07:06:35;;;;;;;35.15;11.77;;;;;;;;;;5065929;28;20154;-39
2023/12/04 07:09:00;;;;;;;32.60;13.13;;;;;;;;;;5062994;28;20024;-40
2023/12/04 07:11:26;;;;;;;35.90;13.65;;;;;;;;;;5064445;28;20024;-40
2023/12/04 07:13:51;;;;;;;31.58;11.70;;;;;;;;;;5062916;28;20462;-40
2023/12/04 07:16:17;;;;;;;29.13;11.70;;;;;;;;;;5060875;28;20028;-40
2023/12/04 07:18:42;;;;;;;44.92;17.27;;;;;;;;;;5058342;28;20028;-40
2023/12/04 07:21:08;;;;;;;50.35;20.45;;;;;;;;;;5057870;28;20701;-39
2023/12/04 07:23:33;;;;;;;37.28;12.93;;;;;;;;;;5062216;28;20619;-40
2023/12/04 07:25:58;;;;;;;38.15;14.13;;;;;;;;;;5070172;28;20028;-39
2023/12/04 07:28:24;;;;;;;37.90;15.10;;;;;;;;;;5067423;28;20036;-40
2023/12/04 07:30:49;;;;;;;38.33;15.75;;;;;;;;;;5064259;28;20086;-40
2023/12/04 07:33:14;;;;;;;34.80;13.05;;;;;;;;;;5062000;28;20028;-40
2023/12/04 07:35:40;;;;;;;37.00;12.77;;;;;;;;;;5065853;28;20028;-40
2023/12/04 07:38:05;;;;;;;30.60;13.57;;;;;;;;;;5068247;28;20473;-40
2023/12/04 07:40:30;;;;;;;23.95;9.45;;;;;;;;;;5062437;28;20581;-40
2023/12/04 07:42:56;;;;;;;46.95;15.75;;;;;;;;;;5067731;28;20035;-39
2023/12/04 07:45:21;;;;;;;35.97;14.00;;;;;;;;;;5068176;28;20020;-40
2023/12/04 07:47:46;;;;;;;38.20;15.23;;;;;;;;;;5066987;28;20028;-40
2023/12/04 07:50:12;;;;;;;42.35;15.25;;;;;;;;;;5067538;28;20027;-40
2023/12/04 07:52:37;;;;;;;47.05;18.38;;;;;;;;;;5067315;28;20031;-40
2023/12/04 07:55:02;;;;;;;49.63;19.52;;;;;;;;;;5066913;28;20024;-40
2023/12/04 07:57:28;;;;;;;31.23;13.73;;;;;;;;;;5062381;28;20042;-39
2023/12/04 07:59:53;;;;;;;36.42;14.05;;;;;;;;;;5054957;28;20028;-40
2023/12/04 08:02:18;;;;;;;35.92;15.20;;;;;;;;;;5067042;28;20056;-40
2023/12/04 08:04:44;;;;;;;37.00;14.18;;;;;;;;;;5061052;28;20052;-40
2023/12/04 08:07:09;;;;;;;39.05;16.77;;;;;;;;;;5062210;28;20521;-41
2023/12/04 08:09:34;;;;;;;39.60;15.88;;;;;;;;;;5060919;28;20556;-39
2023/12/04 08:11:59;;;;;;;41.90;17.52;;;;;;;;;;5045668;28;20115;-40
2023/12/04 08:14:26;;;;;;;32.83;15.35;;;;;;;;;;5068623;28;20024;-39
2023/12/04 08:16:51;;;;;;;44.55;16.55;;;;;;;;;;5063852;28;20017;-40
2023/12/04 08:19:17;;;;;;;41.25;14.63;;;;;;;;;;5066197;28;20028;-40
2023/12/04 08:21:42;;;;;;;33.15;15.05;;;;;;;;;;5061407;28;20078;-41
2023/12/04 08:24:07;;;;;;;47.08;16.42;;;;;;;;;;5045455;28;20017;-40
2023/12/04 08:26:33;;;;;;;32.90;13.98;;;;;;;;;;5043332;28;20033;-40
2023/12/04 08:28:59;;;;;;;40.72;14.70;;;;;;;;;;5063493;28;20025;-40
2023/12/04 08:31:24;;;;;;;40.72;14.98;;;;;;;;;;5064600;28;21242;-38
2023/12/04 08:33:49;;;;;;;44.42;15.23;;;;;;;;;;5057910;28;20020;-40
2023/12/04 08:36:15;;;;;;;28.67;13.32;;;;;;;;;;5059502;28;20093;-40
2023/12/04 08:38:40;;;;;;;40.20;15.43;;;;;;;;;;5064372;28;20467;-38
2023/12/04 08:41:06;;;;;;;37.63;13.18;;;;;;;;;;5064338;28;20025;-39
2023/12/04 08:43:31;;;;;;;35.90;14.43;;;;;;;;;;5065791;28;20015;-40
2023/12/04 08:45:56;;;;;;;38.22;14.95;;;;;;;;;;5060685;28;20528;-39
2023/12/04 08:48:21;;;;;;;36.28;15.30;;;;;;;;;;5063565;28;20494;-40
2023/12/04 08:50:47;;;;;;;42.90;15.43;;;;;;;;;;5064216;28;20044;-40
2023/12/04 08:53:12;;;;;;;44.58;16.52;;;;;;;;;;5059769;28;20021;-39
2023/12/04 08:55:38;;;;;;;37.78;14.30;;;;;;;;;;5064592;28;20058;-41
2023/12/04 08:58:03;;;;;;;38.47;15.30;;;;;;;;;;5062910;28;20542;-39
2023/12/04 09:00:29;;;;;;;36.75;15.25;;;;;;;;;;5054817;28;20044;-39
2023/12/04 09:02:54;;;;;;;43.78;17.35;;;;;;;;;;5063812;28;20017;-40
2023/12/04 09:05:19;;;;;;;36.83;16.70;;;;;;;;;;5057557;28;20047;-39
2023/12/04 09:07:45;;;;;;;45.38;17.60;;;;;;;;;;5061179;28;20062;-40
2023/12/04 09:10:10;;;;;;;47.00;16.63;;;;;;;;;;5058009;28;20039;-40
2023/12/04 09:12:36;;;;;;;44.47;15.48;;;;;;;;;;5037429;28;20017;-39
2023/12/04 09:15:02;;;;;;;46.63;17.10;;;;;;;;;;5064509;28;20107;-38
2023/12/04 09:17:27;;;;;;;38.90;16.83;;;;;;;;;;5063359;28;20073;-39
2023/12/04 09:19:53;;;;;;;42.83;16.30;;;;;;;;;;5064792;28;20060;-39
2023/12/04 09:22:18;;;;;;;65.03;28.30;;;;;;;;;;5065978;28;20057;-39
2023/12/04 09:24:44;;;;;;;46.58;20.23;;;;;;;;;;5066679;28;20967;-39
2023/12/04 09:27:09;;;;;;;46.70;16.95;;;;;;;;;;5066077;28;20471;-40
2023/12/04 09:29:34;;;;;;;42.08;16.80;;;;;;;;;;5066230;28;20024;-39
2023/12/04 09:32:00;;;;;;;40.70;17.65;;;;;;;;;;5055353;28;20040;-40
2023/12/04 09:34:25;;;;;;;46.38;18.48;;;;;;;;;;5060445;28;20479;-40
2023/12/04 09:36:50;;;;;;;44.20;17.38;;;;;;;;;;5053324;28;20032;-39
2023/12/04 09:39:16;;;;;;;41.83;17.88;;;;;;;;;;5061039;28;20020;-41
2023/12/04 09:41:42;;;;;;;35.88;15.23;;;;;;;;;;5065398;28;20043;-40
2023/12/04 09:44:08;;;;;;;46.45;16.20;;;;;;;;;;5058602;28;20025;-40
2023/12/04 09:46:34;;;;;;;34.60;15.57;;;;;;;;;;5062653;28;20032;-39
2023/12/04 09:48:59;;;;;;;35.70;15.40;;;;;;;;;;5061632;28;20047;-39
2023/12/04 09:51:26;;;;;;;48.58;16.90;;;;;;;;;;5054466;28;20480;-39
2023/12/04 09:53:52;;;;;;;43.90;17.83;;;;;;;;;;5064114;28;20166;-41
2023/12/04 09:56:18;;;;;;;42.22;16.08;;;;;;;;;;5065813;28;20115;-38
2023/12/04 09:58:45;;;;;;;37.47;15.35;;;;;;;;;;5065622;28;20036;-39
2023/12/04 10:01:11;;;;;;;43.58;17.42;;;;;;;;;;5060993;28;20040;-41
2023/12/04 10:03:36;;;;;;;50.13;20.10;;;;;;;;;;5062232;28;20464;-40
2023/12/04 10:06:02;;;;;;;35.85;19.23;;;;;;;;;;5062692;28;20471;-39
2023/12/04 10:08:27;;;;;;;37.30;15.68;;;;;;;;;;5060091;28;20083;-38
2023/12/04 10:10:53;;;;;;;37.33;15.50;;;;;;;;;;5052303;28;20024;-40
2023/12/04 10:13:18;;;;;;;41.95;15.18;;;;;;;;;;5059986;28;20036;-39
2023/12/04 10:15:47;;;;;;;37.15;15.95;;;;;;;;;;5050222;28;20032;-39
2023/12/04 10:18:30;;;;;;;40.13;17.25;;;;;;;;;;5051115;28;20124;-41
2023/12/04 10:20:55;;;;;;;;;;;;;;;;;;5057866;28;20019;-41
2023/12/04 10:23:20;;;;;;;40.77;13.97;;;;;;;;;;5055956;28;19908;-40
2023/12/04 10:25:49;;;;;;;39.10;16.13;;;;;;;;;;5058972;28;20274;-39
2023/12/04 10:28:15;;;;;;;37.55;15.25;;;;;;;;;;5061573;28;20082;-41
2023/12/04 10:30:41;;;;;;;34.30;14.00;;;;;;;;;;5064774;28;20024;-40
2023/12/04 10:33:07;;;;;;;35.70;15.85;;;;;;;;;;5064928;28;20086;-40
2023/12/04 10:35:36;;;;;;;37.25;15.43;;;;;;;;;;5064979;28;20490;-39
2023/12/04 10:38:02;;;;;;;32.45;14.07;;;;;;;;;;5060922;28;20067;-39
2023/12/04 10:40:28;;;;;;;37.83;13.02;;;;;;;;;;5064739;28;20445;-41
2023/12/04 10:43:09;;;;;;;29.10;14.13;;;;;;;;;;5066521;28;20436;-40
2023/12/04 10:45:36;;;;;;;38.30;16.10;;;;;;;;;;5063188;28;20036;-39
2023/12/04 10:48:04;;;;;;;40.85;16.40;;;;;;;;;;5059738;28;20039;-39
2023/12/04 10:50:31;;;;;;;33.45;15.00;;;;;;;;;;5060319;28;20024;-41
2023/12/04 10:52:56;;;;;;;29.00;14.30;;;;;;;;;;5064347;28;20052;-41
2023/12/04 10:55:22;;;;;;;31.42;12.38;;;;;;;;;;5063087;28;20070;-40
2023/12/04 10:57:51;;;;;;;27.95;12.77;;;;;;;;;;5042700;28;20028;-39
2023/12/04 11:00:17;;;;;;;30.15;12.82;;;;;;;;;;5063428;28;20102;-47
2023/12/04 11:02:49;;;;;;;33.40;14.63;;;;;;;;;;5067909;28;20020;-41
2023/12/04 11:05:17;;;;;;;27.65;13.23;;;;;;;;;;5065945;28;20765;-39
2023/12/04 11:07:47;;;;;;;31.63;12.93;;;;;;;;;;5064000;28;20032;-40
2023/12/04 11:10:13;;;;;;;30.75;12.40;;;;;;;;;;5046902;28;20510;-41
2023/12/04 11:12:44;;;;;;;32.08;13.10;;;;;;;;;;5064501;28;20052;-39
2023/12/04 11:15:10;;;;;;;36.15;15.10;;;;;;;;;;5064312;28;20020;-39
2023/12/04 11:17:37;;;;;;;38.85;15.40;;;;;;;;;;5062018;28;20123;-39
2023/12/04 11:20:07;;;;;;;28.75;13.98;;;;;;;;;;5055018;28;20025;-40
2023/12/04 11:22:35;;;;;;;21.13;9.52;;;;;;;;;;5066626;28;20025;-38
2023/12/04 11:25:01;;;;;;;30.00;13.98;;;;;;;;;;5067393;28;20044;-39
2023/12/04 11:27:26;;;;;;;36.22;14.88;;;;;;;;;;5066131;28;20060;-40
2023/12/04 11:29:52;;;;;;;58.15;21.55;;;;;;;;;;5066310;28;20419;-39
2023/12/04 11:32:18;;;;;;;46.05;17.27;;;;;;;;;;5060161;28;20491;-40
2023/12/04 11:34:50;;;;;;;27.75;12.57;;;;;;;;;;5054829;28;20033;-38
2023/12/04 11:37:15;;;;;;;30.88;13.45;;;;;;;;;;5067485;28;20107;-39
2023/12/04 11:39:41;;;;;;;31.02;13.32;;;;;;;;;;5067483;28;20103;-39
2023/12/04 11:42:06;;;;;;;25.70;12.48;;;;;;;;;;5067457;28;20032;-40
2023/12/04 11:44:32;;;;;;;32.75;12.75;;;;;;;;;;5067327;28;20020;-38
2023/12/04 11:47:02;;;;;;;34.08;12.38;;;;;;;;;;5065712;28;20035;-39
2023/12/04 11:49:28;;;;;;;32.35;13.40;;;;;;;;;;5066016;28;20023;-40
2023/12/04 11:51:55;;;;;;;25.85;12.50;;;;;;;;;;5059407;28;20028;-38
2023/12/04 11:54:24;;;;;;;33.83;14.80;;;;;;;;;;5067863;28;20458;-40
2023/12/04 11:57:08;;;;;;;28.52;11.65;;;;;;;;;;5065959;28;20020;-39
2023/12/04 11:59:39;;;;;;;31.23;12.63;;;;;;;;;;5067327;28;20067;-40
2023/12/04 12:02:08;;;;;;;23.70;12.63;;;;;;;;;;5058588;28;20047;-40
2023/12/04 12:04:33;;;;;;;34.65;13.48;;;;;;;;;;5054405;28;25836;-39
2023/12/04 12:07:02;;;;;;;27.38;12.35;;;;;;;;;;5062034;28;20032;-40
2023/12/04 12:09:27;;;;;;;28.85;12.98;;;;;;;;;;5062651;28;20017;-41
2023/12/04 12:11:53;;;;;;;32.90;13.35;;;;;;;;;;5063088;28;20071;-39
2023/12/04 12:14:20;;;;;;;27.90;12.57;;;;;;;;;;5063959;28;20032;-38
2023/12/04 12:16:46;;;;;;;28.58;13.18;;;;;;;;;;5063854;28;20130;-39
2023/12/04 12:19:11;;;;;;;28.15;13.23;;;;;;;;;;5064969;28;20457;-41
2023/12/04 12:21:36;;;;;;;30.30;13.85;;;;;;;;;;5067622;28;20645;-39
2023/12/04 12:24:02;;;;;;;31.67;14.68;;;;;;;;;;5067033;28;20033;-39
2023/12/04 12:26:28;;;;;;;33.03;13.50;;;;;;;;;;5064998;28;20070;-40
2023/12/04 12:28:53;;;;;;;30.60;13.63;;;;;;;;;;5065881;28;20063;-39
2023/12/04 12:31:18;;;;;;;30.75;14.10;;;;;;;;;;5065989;28;20052;-40
2023/12/04 12:33:44;;;;;;;37.08;14.85;;;;;;;;;;5049143;28;20036;-40
2023/12/04 12:36:09;;;;;;;36.33;13.95;;;;;;;;;;5066300;28;20828;-39
2023/12/04 12:38:35;;;;;;;34.40;13.43;;;;;;;;;;5067226;28;20032;-39
2023/12/04 12:41:01;;;;;;;28.63;12.20;;;;;;;;;;5062847;28;20043;-40
2023/12/04 12:43:27;;;;;;;35.60;13.02;;;;;;;;;;5054378;28;20111;-40
2023/12/04 12:45:52;;;;;;;40.35;13.38;;;;;;;;;;5058544;28;20055;-40
2023/12/04 12:48:18;;;;;;;29.70;14.05;;;;;;;;;;5064458;28;20056;-38
2023/12/04 12:50:44;;;;;;;37.38;14.00;;;;;;;;;;5058562;28;20575;-38
2023/12/04 12:53:12;;;;;;;32.35;13.45;;;;;;;;;;5058380;28;20060;-39
2023/12/04 12:55:41;;;;;;;32.85;13.57;;;;;;;;;;5057842;28;20108;-40
2023/12/04 12:58:06;;;;;;;30.80;12.65;;;;;;;;;;5063741;28;20052;-39
2023/12/04 13:00:33;;;;;;;27.73;13.13;;;;;;;;;;5064411;28;20052;-39
2023/12/04 13:02:58;;;;;;;31.35;12.65;;;;;;;;;;5051915;28;20048;-39
2023/12/04 13:05:24;;;;;;;29.67;14.38;;;;;;;;;;5057103;28;20112;-39
2023/12/04 13:07:49;;;;;;;38.50;14.13;;;;;;;;;;5063586;28;20046;-41
2023/12/04 13:10:14;;;;;;;32.92;14.77;;;;;;;;;;5064160;28;20032;-39
2023/12/04 13:12:40;;;;;;;33.92;14.88;;;;;;;;;;5064988;28;20037;-40
2023/12/04 13:15:05;;;;;;;33.72;13.98;;;;;;;;;;5063633;28;20039;-39
2023/12/04 13:17:31;;;;;;;37.50;13.70;;;;;;;;;;5063765;28;20032;-40
2023/12/04 13:19:57;;;;;;;30.65;13.20;;;;;;;;;;5064776;28;20463;-39
2023/12/04 13:22:22;;;;;;;24.13;12.07;;;;;;;;;;5055575;28;20033;-39
2023/12/04 13:24:47;;;;;;;28.42;13.07;;;;;;;;;;5064865;28;20109;-39
2023/12/04 13:27:13;;;;;;;30.98;12.43;;;;;;;;;;5065221;28;20067;-39
2023/12/04 13:29:38;;;;;;;28.30;14.65;;;;;;;;;;5045198;28;20021;-40
2023/12/04 13:32:04;;;;;;;48.83;20.17;;;;;;;;;;5065061;28;20048;-39
2023/12/04 13:34:30;;;;;;;49.75;22.10;;;;;;;;;;5064652;28;20117;-39
2023/12/04 13:36:56;;;;;;;41.45;16.65;;;;;;;;;;5057312;28;20036;-39
2023/12/04 13:39:27;;;;;;;35.15;15.45;;;;;;;;;;5063444;28;20017;-38
2023/12/04 13:44:36;;;;;;;32.83;13.13;;;;;;;;;;5055015;28;20394;-39
2023/12/04 13:47:01;;;;;;;33.78;14.88;;;;;;;;;;5065565;28;20033;-39
2023/12/04 13:49:27;;;;;;;34.65;14.75;;;;;;;;;;5062730;28;20111;-40
2023/12/04 13:51:53;;;;;;;32.33;13.73;;;;;;;;;;5064229;28;20128;-39
2023/12/04 13:54:27;;;;;;;32.40;14.63;;;;;;;;;;5067530;28;20016;-40
2023/12/04 13:56:56;;;;;;;40.78;14.75;;;;;;;;;;5064483;28;20107;-40
2023/12/04 13:59:24;;;;;;;32.35;14.48;;;;;;;;;;5062030;28;20040;-40
2023/12/04 14:01:49;;;;;;;47.10;18.88;;;;;;;;;;5063470;28;20696;-39
2023/12/04 14:04:15;;;;;;;49.30;21.55;;;;;;;;;;5057795;28;20111;-39
2023/12/04 14:06:40;;;;;;;40.80;16.25;;;;;;;;;;5063353;28;20100;-40
2023/12/04 14:09:09;;;;;;;33.53;13.13;;;;;;;;;;5064005;28;20056;-40
2023/12/04 14:11:35;;;;;;;36.08;13.48;;;;;;;;;;5064236;28;20028;-38
2023/12/04 14:14:00;;;;;;;33.83;13.93;;;;;;;;;;5057925;28;20108;-38
2023/12/04 14:16:26;;;;;;;29.23;12.38;;;;;;;;;;5060439;28;20024;-41